sensor_id;sensor_type;location;lat;lon;timestamp;pressure;altitude;pressure_sealevel;temperature;humidity
34506;BME280;20748;42.632;23.198;2023-05-10T00:02:00;92191.06;;;8.14;100.00
34506;BME280;20748;42.632;23.198;2023-05-10T00:04:33;92186.88;;;8.18;100.00
34506;BME280;20748;42.632;23.198;2023-05-10T00:07:05;92178.88;;;8.15;100.00
34506;BME280;20748;42.632;23.198;2023-05-10T00:09:38;92180.66;;;8.14;100.00
34506;BME280;20748;42.632;23.198;2023-05-10T00:12:10;92176.97;;;8.20;100.00
34506;BME280;20748;42.632;23.198;2023-05-10T00:14:42;92177.47;;;8.23;100.00
34506;BME280;20748;42.632;23.198;2023-05-10T00:17:15;92167.91;;;8.18;100.00
34506;BME280;20748;42.632;23.198;2023-05-10T00:19:48;92169.47;;;8.19;100.00
34506;BME280;20748;42.632;23.198;2023-05-10T00:22:20;92174.88;;;8.23;100.00
34506;BME280;20748;42.632;23.198;2023-05-10T00:24:53;92170.00;;;8.16;100.00
34506;BME280;20748;42.632;23.198;2023-05-10T00:27:25;92160.72;;;8.10;100.00
34506;BME280;20748;42.632;23.198;2023-05-10T00:29:57;92164.72;;;8.02;100.00
34506;BME280;20748;42.632;23.198;2023-05-10T00:32:30;92164.97;;;8.00;100.00
34506;BME280;20748;42.632;23.198;2023-05-10T00:35:03;92157.91;;;8.06;100.00
34506;BME280;20748;42.632;23.198;2023-05-10T00:37:35;92161.63;;;8.00;100.00
34506;BME280;20748;42.632;23.198;2023-05-10T00:40:08;92168.03;;;8.08;100.00
34506;BME280;20748;42.632;23.198;2023-05-10T00:42:41;92157.81;;;7.92;100.00
34506;BME280;20748;42.632;23.198;2023-05-10T00:45:13;92154.53;;;8.05;100.00
34506;BME280;20748;42.632;23.198;2023-05-10T00:47:46;92150.88;;;8.06;100.00
34506;BME280;20748;42.632;23.198;2023-05-10T00:50:19;92153.78;;;8.05;100.00
34506;BME280;20748;42.632;23.198;2023-05-10T00:52:51;92136.69;;;7.99;100.00
34506;BME280;20748;42.632;23.198;2023-05-10T00:55:24;92151.66;;;8.07;100.00
34506;BME280;20748;42.632;23.198;2023-05-10T00:57:57;92153.47;;;8.06;100.00
34506;BME280;20748;42.632;23.198;2023-05-10T01:00:30;92156.38;;;8.05;100.00
34506;BME280;20748;42.632;23.198;2023-05-10T01:03:03;92156.00;;;8.12;100.00
34506;BME280;20748;42.632;23.198;2023-05-10T01:05:35;92155.31;;;8.06;100.00
34506;BME280;20748;42.632;23.198;2023-05-10T01:08:08;92151.03;;;8.15;100.00
34506;BME280;20748;42.632;23.198;2023-05-10T01:10:40;92143.22;;;8.15;100.00
34506;BME280;20748;42.632;23.198;2023-05-10T01:13:16;92149.09;;;8.26;100.00
34506;BME280;20748;42.632;23.198;2023-05-10T01:15:52;92156.94;;;8.21;100.00
34506;BME280;20748;42.632;23.198;2023-05-10T01:18:26;92139.88;;;8.15;100.00
34506;BME280;20748;42.632;23.198;2023-05-10T01:21:13;92147.25;;;8.08;100.00
34506;BME280;20748;42.632;23.198;2023-05-10T01:27:11;92138.94;;;8.05;100.00
34506;BME280;20748;42.632;23.198;2023-05-10T01:30:15;92136.06;;;8.07;100.00
34506;BME280;20748;42.632;23.198;2023-05-10T01:32:58;92141.53;;;8.05;100.00
34506;BME280;20748;42.632;23.198;2023-05-10T01:35:37;92135.16;;;7.98;100.00
34506;BME280;20748;42.632;23.198;2023-05-10T01:38:16;92134.03;;;8.04;100.00
34506;BME280;20748;42.632;23.198;2023-05-10T01:41:05;92128.53;;;8.05;100.00
34506;BME280;20748;42.632;23.198;2023-05-10T01:46:37;92110.94;;;8.02;100.00
34506;BME280;20748;42.632;23.198;2023-05-10T01:49:16;92122.16;;;8.17;100.00
34506;BME280;20748;42.632;23.198;2023-05-10T01:51:54;92117.59;;;8.09;100.00
34506;BME280;20748;42.632;23.198;2023-05-10T01:54:33;92123.28;;;8.11;100.00
34506;BME280;20748;42.632;23.198;2023-05-10T01:57:08;92125.88;;;8.11;100.00
34506;BME280;20748;42.632;23.198;2023-05-10T01:59:43;92131.94;;;8.06;100.00
34506;BME280;20748;42.632;23.198;2023-05-10T02:02:20;92125.94;;;8.05;100.00
34506;BME280;20748;42.632;23.198;2023-05-10T02:04:54;92118.72;;;8.02;100.00
34506;BME280;20748;42.632;23.198;2023-05-10T02:07:28;92125.72;;;8.02;100.00
34506;BME280;20748;42.632;23.198;2023-05-10T02:10:01;92125.84;;;7.91;100.00
34506;BME280;20748;42.632;23.198;2023-05-10T02:12:36;92123.81;;;7.88;100.00
34506;BME280;20748;42.632;23.198;2023-05-10T02:15:10;92121.22;;;7.88;100.00
34506;BME280;20748;42.632;23.198;2023-05-10T02:17:45;92127.56;;;7.77;100.00
34506;BME280;20748;42.632;23.198;2023-05-10T02:20:20;92123.50;;;7.71;100.00
34506;BME280;20748;42.632;23.198;2023-05-10T02:22:55;92122.75;;;7.65;100.00
34506;BME280;20748;42.632;23.198;2023-05-10T02:25:28;92120.06;;;7.75;100.00
34506;BME280;20748;42.632;23.198;2023-05-10T02:28:04;92126.88;;;7.71;100.00
34506;BME280;20748;42.632;23.198;2023-05-10T02:30:37;92117.47;;;7.75;100.00
34506;BME280;20748;42.632;23.198;2023-05-10T02:33:11;92112.53;;;7.74;100.00
34506;BME280;20748;42.632;23.198;2023-05-10T02:35:44;92105.19;;;7.57;100.00
34506;BME280;20748;42.632;23.198;2023-05-10T02:38:19;92110.28;;;7.67;100.00
34506;BME280;20748;42.632;23.198;2023-05-10T02:40:52;92116.75;;;7.70;100.00
34506;BME280;20748;42.632;23.198;2023-05-10T02:43:30;92116.69;;;7.75;100.00
34506;BME280;20748;42.632;23.198;2023-05-10T02:46:04;92116.34;;;7.82;100.00
34506;BME280;20748;42.632;23.198;2023-05-10T02:48:36;92115.66;;;7.76;100.00
34506;BME280;20748;42.632;23.198;2023-05-10T02:51:12;92123.44;;;7.76;100.00
34506;BME280;20748;42.632;23.198;2023-05-10T02:53:49;92101.50;;;7.63;100.00
34506;BME280;20748;42.632;23.198;2023-05-10T02:56:29;92116.19;;;7.73;100.00
34506;BME280;20748;42.632;23.198;2023-05-10T02:59:03;92111.38;;;7.61;100.00
34506;BME280;20748;42.632;23.198;2023-05-10T03:01:36;92117.63;;;7.60;100.00
34506;BME280;20748;42.632;23.198;2023-05-10T03:04:09;92112.09;;;7.66;100.00
34506;BME280;20748;42.632;23.198;2023-05-10T03:06:42;92117.34;;;7.61;100.00
34506;BME280;20748;42.632;23.198;2023-05-10T03:09:15;92114.41;;;7.44;100.00
34506;BME280;20748;42.632;23.198;2023-05-10T03:11:55;92122.41;;;7.23;100.00
34506;BME280;20748;42.632;23.198;2023-05-10T03:14:38;92118.44;;;7.31;100.00
34506;BME280;20748;42.632;23.198;2023-05-10T03:17:22;92117.28;;;7.42;100.00
34506;BME280;20748;42.632;23.198;2023-05-10T03:19:57;92122.41;;;7.47;100.00
34506;BME280;20748;42.632;23.198;2023-05-10T03:22:34;92119.28;;;7.50;100.00
34506;BME280;20748;42.632;23.198;2023-05-10T03:25:11;92116.28;;;7.38;100.00
34506;BME280;20748;42.632;23.198;2023-05-10T03:27:45;92129.03;;;7.34;100.00
34506;BME280;20748;42.632;23.198;2023-05-10T03:30:19;92107.91;;;7.17;100.00
34506;BME280;20748;42.632;23.198;2023-05-10T03:32:51;92126.84;;;7.17;100.00
34506;BME280;20748;42.632;23.198;2023-05-10T03:35:24;92123.31;;;7.08;100.00
34506;BME280;20748;42.632;23.198;2023-05-10T03:37:57;92122.78;;;7.06;100.00
34506;BME280;20748;42.632;23.198;2023-05-10T03:40:29;92123.28;;;7.13;100.00
34506;BME280;20748;42.632;23.198;2023-05-10T03:43:04;92122.75;;;7.11;100.00
34506;BME280;20748;42.632;23.198;2023-05-10T03:45:36;92131.94;;;6.98;100.00
34506;BME280;20748;42.632;23.198;2023-05-10T03:48:09;92125.53;;;6.90;100.00
34506;BME280;20748;42.632;23.198;2023-05-10T03:50:41;92132.66;;;6.74;100.00
34506;BME280;20748;42.632;23.198;2023-05-10T03:53:15;92131.44;;;6.61;100.00
34506;BME280;20748;42.632;23.198;2023-05-10T03:55:47;92136.69;;;6.45;100.00
34506;BME280;20748;42.632;23.198;2023-05-10T03:58:20;92137.22;;;6.48;100.00
34506;BME280;20748;42.632;23.198;2023-05-10T04:00:52;92134.22;;;6.30;100.00
34506;BME280;20748;42.632;23.198;2023-05-10T04:03:25;92144.84;;;6.23;100.00
34506;BME280;20748;42.632;23.198;2023-05-10T04:05:59;92142.56;;;6.11;100.00
34506;BME280;20748;42.632;23.198;2023-05-10T04:08:32;92149.88;;;6.04;100.00
34506;BME280;20748;42.632;23.198;2023-05-10T04:11:05;92147.53;;;6.02;100.00
34506;BME280;20748;42.632;23.198;2023-05-10T04:13:38;92144.69;;;6.04;100.00
34506;BME280;20748;42.632;23.198;2023-05-10T04:16:10;92153.72;;;6.01;100.00
34506;BME280;20748;42.632;23.198;2023-05-10T04:18:43;92150.41;;;5.85;100.00
34506;BME280;20748;42.632;23.198;2023-05-10T04:21:15;92149.13;;;5.88;100.00
34506;BME280;20748;42.632;23.198;2023-05-10T04:23:48;92150.91;;;5.98;100.00
34506;BME280;20748;42.632;23.198;2023-05-10T04:26:20;92155.03;;;5.94;100.00
34506;BME280;20748;42.632;23.198;2023-05-10T04:28:53;92147.56;;;5.87;100.00
34506;BME280;20748;42.632;23.198;2023-05-10T04:31:26;92157.16;;;5.81;100.00
34506;BME280;20748;42.632;23.198;2023-05-10T04:33:59;92156.09;;;5.87;100.00
34506;BME280;20748;42.632;23.198;2023-05-10T04:36:32;92152.19;;;5.95;100.00
34506;BME280;20748;42.632;23.198;2023-05-10T04:39:07;92158.69;;;5.93;100.00
34506;BME280;20748;42.632;23.198;2023-05-10T04:41:41;92158.66;;;5.98;100.00
34506;BME280;20748;42.632;23.198;2023-05-10T04:44:13;92155.84;;;5.94;100.00
34506;BME280;20748;42.632;23.198;2023-05-10T04:46:46;92154.28;;;6.03;100.00
34506;BME280;20748;42.632;23.198;2023-05-10T04:49:18;92156.88;;;6.03;100.00
34506;BME280;20748;42.632;23.198;2023-05-10T04:51:50;92159.47;;;6.03;100.00
34506;BME280;20748;42.632;23.198;2023-05-10T04:54:23;92160.22;;;6.04;100.00
34506;BME280;20748;42.632;23.198;2023-05-10T04:56:56;92157.63;;;6.09;100.00
34506;BME280;20748;42.632;23.198;2023-05-10T04:59:28;92167.44;;;6.17;100.00
34506;BME280;20748;42.632;23.198;2023-05-10T05:02:01;92163.56;;;6.15;100.00
34506;BME280;20748;42.632;23.198;2023-05-10T05:04:33;92163.84;;;6.08;100.00
34506;BME280;20748;42.632;23.198;2023-05-10T05:07:05;92161.50;;;6.01;100.00
34506;BME280;20748;42.632;23.198;2023-05-10T05:09:38;92163.09;;;5.97;100.00
34506;BME280;20748;42.632;23.198;2023-05-10T05:12:11;92166.97;;;5.95;100.00
34506;BME280;20748;42.632;23.198;2023-05-10T05:14:45;92169.53;;;6.05;100.00
34506;BME280;20748;42.632;23.198;2023-05-10T05:17:17;92169.25;;;6.12;100.00
34506;BME280;20748;42.632;23.198;2023-05-10T05:19:50;92172.88;;;6.16;100.00
34506;BME280;20748;42.632;23.198;2023-05-10T05:22:22;92170.06;;;6.12;100.00
34506;BME280;20748;42.632;23.198;2023-05-10T05:24:59;92166.66;;;6.12;100.00
34506;BME280;20748;42.632;23.198;2023-05-10T05:27:33;92177.50;;;6.24;100.00
34506;BME280;20748;42.632;23.198;2023-05-10T05:30:07;92183.44;;;6.30;100.00
34506;BME280;20748;42.632;23.198;2023-05-10T05:32:39;92183.97;;;6.22;100.00
34506;BME280;20748;42.632;23.198;2023-05-10T05:35:11;92183.72;;;6.23;100.00
34506;BME280;20748;42.632;23.198;2023-05-10T05:37:44;92182.94;;;6.23;100.00
34506;BME280;20748;42.632;23.198;2023-05-10T05:40:17;92182.09;;;6.38;100.00
34506;BME280;20748;42.632;23.198;2023-05-10T05:42:49;92182.88;;;6.38;100.00
34506;BME280;20748;42.632;23.198;2023-05-10T05:45:21;92184.66;;;6.43;100.00
34506;BME280;20748;42.632;23.198;2023-05-10T05:47:56;92185.94;;;6.45;100.00
34506;BME280;20748;42.632;23.198;2023-05-10T05:50:29;92191.38;;;6.49;100.00
34506;BME280;20748;42.632;23.198;2023-05-10T05:53:01;92189.59;;;6.44;100.00
34506;BME280;20748;42.632;23.198;2023-05-10T05:55:34;92192.66;;;6.52;100.00
34506;BME280;20748;42.632;23.198;2023-05-10T05:58:07;92195.00;;;6.48;100.00
34506;BME280;20748;42.632;23.198;2023-05-10T06:00:39;92190.16;;;6.36;100.00
34506;BME280;20748;42.632;23.198;2023-05-10T06:03:11;92195.34;;;6.36;100.00
34506;BME280;20748;42.632;23.198;2023-05-10T06:05:44;92197.63;;;6.43;100.00
34506;BME280;20748;42.632;23.198;2023-05-10T06:08:16;92196.63;;;6.39;100.00
34506;BME280;20748;42.632;23.198;2023-05-10T06:10:49;92195.25;;;6.52;100.00
34506;BME280;20748;42.632;23.198;2023-05-10T06:13:21;92202.81;;;6.43;100.00
34506;BME280;20748;42.632;23.198;2023-05-10T06:15:54;92203.34;;;6.40;100.00
34506;BME280;20748;42.632;23.198;2023-05-10T06:18:26;92205.63;;;6.52;100.00
34506;BME280;20748;42.632;23.198;2023-05-10T06:20:58;92201.50;;;6.45;100.00
34506;BME280;20748;42.632;23.198;2023-05-10T06:23:31;92198.06;;;6.61;100.00
34506;BME280;20748;42.632;23.198;2023-05-10T06:26:04;92198.56;;;6.63;100.00
34506;BME280;20748;42.632;23.198;2023-05-10T06:28:37;92199.53;;;6.72;100.00
34506;BME280;20748;42.632;23.198;2023-05-10T06:31:09;92200.81;;;6.75;100.00
34506;BME280;20748;42.632;23.198;2023-05-10T06:33:43;92194.31;;;6.82;100.00
34506;BME280;20748;42.632;23.198;2023-05-10T06:36:15;92206.19;;;6.89;100.00
34506;BME280;20748;42.632;23.198;2023-05-10T06:38:48;92206.47;;;6.87;100.00
34506;BME280;20748;42.632;23.198;2023-05-10T06:41:21;92208.72;;;6.99;100.00
34506;BME280;20748;42.632;23.198;2023-05-10T06:43:56;92211.59;;;6.97;100.00
34506;BME280;20748;42.632;23.198;2023-05-10T06:46:28;92206.88;;;6.99;100.00
34506;BME280;20748;42.632;23.198;2023-05-10T06:49:00;92213.38;;;7.02;100.00
34506;BME280;20748;42.632;23.198;2023-05-10T06:51:33;92213.38;;;6.97;100.00
34506;BME280;20748;42.632;23.198;2023-05-10T06:54:05;92211.00;;;7.06;100.00
34506;BME280;20748;42.632;23.198;2023-05-10T06:56:39;92214.13;;;7.08;100.00
34506;BME280;20748;42.632;23.198;2023-05-10T06:59:11;92214.66;;;6.99;100.00
34506;BME280;20748;42.632;23.198;2023-05-10T07:01:45;92219.09;;;6.99;100.00
34506;BME280;20748;42.632;23.198;2023-05-10T07:04:17;92219.34;;;7.03;100.00
34506;BME280;20748;42.632;23.198;2023-05-10T07:12:34;92221.34;;;6.71;100.00
34506;BME280;20748;42.632;23.198;2023-05-10T07:15:08;92224.94;;;6.75;100.00
34506;BME280;20748;42.632;23.198;2023-05-10T07:17:43;92225.19;;;6.79;100.00
34506;BME280;20748;42.632;23.198;2023-05-10T07:20:28;92223.28;;;6.95;100.00
34506;BME280;20748;42.632;23.198;2023-05-10T07:23:00;92219.09;;;6.99;100.00
34506;BME280;20748;42.632;23.198;2023-05-10T07:25:33;92225.75;;;7.16;100.00
34506;BME280;20748;42.632;23.198;2023-05-10T07:28:06;92232.69;;;7.25;100.00
34506;BME280;20748;42.632;23.198;2023-05-10T07:30:38;92230.59;;;7.22;100.00
34506;BME280;20748;42.632;23.198;2023-05-10T07:33:13;92232.69;;;7.25;100.00
34506;BME280;20748;42.632;23.198;2023-05-10T07:35:46;92232.13;;;7.29;100.00
34506;BME280;20748;42.632;23.198;2023-05-10T07:38:18;92236.16;;;7.10;100.00
34506;BME280;20748;42.632;23.198;2023-05-10T07:40:50;92236.06;;;7.21;100.00
34506;BME280;20748;42.632;23.198;2023-05-10T07:43:23;92239.91;;;7.29;100.00
34506;BME280;20748;42.632;23.198;2023-05-10T07:45:55;92235.47;;;7.34;100.00
34506;BME280;20748;42.632;23.198;2023-05-10T07:48:29;92248.13;;;7.41;100.00
34506;BME280;20748;42.632;23.198;2023-05-10T07:51:01;92243.75;;;7.36;100.00
34506;BME280;20748;42.632;23.198;2023-05-10T07:53:33;92241.19;;;7.31;100.00
34506;BME280;20748;42.632;23.198;2023-05-10T07:56:20;92241.13;;;7.42;100.00
34506;BME280;20748;42.632;23.198;2023-05-10T07:58:55;92245.78;;;7.45;100.00
34506;BME280;20748;42.632;23.198;2023-05-10T08:01:30;92242.66;;;7.43;100.00
34506;BME280;20748;42.632;23.198;2023-05-10T08:04:05;92245.81;;;7.39;100.00
34506;BME280;20748;42.632;23.198;2023-05-10T08:06:38;92243.19;;;7.45;100.00
34506;BME280;20748;42.632;23.198;2023-05-10T08:09:11;92244.41;;;7.52;100.00
34506;BME280;20748;42.632;23.198;2023-05-10T08:11:43;92248.03;;;7.51;100.00
34506;BME280;20748;42.632;23.198;2023-05-10T08:14:16;92241.13;;;7.42;100.00
34506;BME280;20748;42.632;23.198;2023-05-10T08:16:49;92240.03;;;7.48;100.00
34506;BME280;20748;42.632;23.198;2023-05-10T08:19:21;92244.91;;;7.55;100.00
34506;BME280;20748;42.632;23.198;2023-05-10T08:21:54;92243.59;;;7.57;100.00
34506;BME280;20748;42.632;23.198;2023-05-10T08:24:27;92248.19;;;7.65;100.00
34506;BME280;20748;42.632;23.198;2023-05-10T08:26:59;92248.47;;;7.64;100.00
34506;BME280;20748;42.632;23.198;2023-05-10T08:29:33;92254.56;;;7.78;100.00
34506;BME280;20748;42.632;23.198;2023-05-10T08:32:21;92257.50;;;7.72;100.00
34506;BME280;20748;42.632;23.198;2023-05-10T08:34:53;92245.56;;;7.71;100.00
34506;BME280;20748;42.632;23.198;2023-05-10T08:37:26;92248.38;;;7.74;100.00
34506;BME280;20748;42.632;23.198;2023-05-10T08:40:01;92248.25;;;7.90;100.00
34506;BME280;20748;42.632;23.198;2023-05-10T08:42:36;92244.84;;;7.89;100.00
34506;BME280;20748;42.632;23.198;2023-05-10T08:45:10;92249.00;;;7.90;100.00
34506;BME280;20748;42.632;23.198;2023-05-10T08:47:43;92250.53;;;7.91;100.00
34506;BME280;20748;42.632;23.198;2023-05-10T08:50:17;92248.41;;;7.99;100.00
34506;BME280;20748;42.632;23.198;2023-05-10T08:52:55;92245.16;;;8.12;100.00
34506;BME280;20748;42.632;23.198;2023-05-10T08:55:29;92241.88;;;8.26;100.00
34506;BME280;20748;42.632;23.198;2023-05-10T08:58:02;92227.03;;;8.31;100.00
34506;BME280;20748;42.632;23.198;2023-05-10T09:00:36;92248.13;;;8.54;100.00
34506;BME280;20748;42.632;23.198;2023-05-10T09:03:09;92248.13;;;8.54;100.00
34506;BME280;20748;42.632;23.198;2023-05-10T09:05:42;92250.22;;;8.47;100.00
34506;BME280;20748;42.632;23.198;2023-05-10T09:08:14;92245.44;;;8.59;100.00
34506;BME280;20748;42.632;23.198;2023-05-10T09:10:48;92241.59;;;8.76;100.00
34506;BME280;20748;42.632;23.198;2023-05-10T09:13:21;92241.25;;;8.83;100.00
34506;BME280;20748;42.632;23.198;2023-05-10T09:15:54;92244.75;;;8.92;100.00
34506;BME280;20748;42.632;23.198;2023-05-10T09:18:27;92245.47;;;8.98;100.00
34506;BME280;20748;42.632;23.198;2023-05-10T09:20:59;92250.81;;;9.07;100.00
34506;BME280;20748;42.632;23.198;2023-05-10T09:23:32;92243.44;;;9.14;100.00
34506;BME280;20748;42.632;23.198;2023-05-10T09:26:04;92231.81;;;9.06;100.00
34506;BME280;20748;42.632;23.198;2023-05-10T09:28:50;92245.69;;;9.21;100.00
34506;BME280;20748;42.632;23.198;2023-05-10T09:31:24;92243.28;;;9.24;100.00
34506;BME280;20748;42.632;23.198;2023-05-10T09:33:57;92242.34;;;9.34;100.00
34506;BME280;20748;42.632;23.198;2023-05-10T09:36:29;92237.97;;;9.49;100.00
34506;BME280;20748;42.632;23.198;2023-05-10T09:39:02;92240.41;;;9.59;100.00
34506;BME280;20748;42.632;23.198;2023-05-10T09:41:34;92238.72;;;9.69;100.00
34506;BME280;20748;42.632;23.198;2023-05-10T09:44:07;92240.03;;;9.66;100.00
34506;BME280;20748;42.632;23.198;2023-05-10T09:46:40;92238.81;;;9.77;100.00
34506;BME280;20748;42.632;23.198;2023-05-10T09:49:14;92235.75;;;10.03;100.00
34506;BME280;20748;42.632;23.198;2023-05-10T09:51:46;92239.28;;;10.27;100.00
34506;BME280;20748;42.632;23.198;2023-05-10T09:54:19;92224.47;;;10.36;100.00
34506;BME280;20748;42.632;23.198;2023-05-10T09:56:51;92219.97;;;10.56;100.00
34506;BME280;20748;42.632;23.198;2023-05-10T09:59:25;92218.63;;;10.58;100.00
34506;BME280;20748;42.632;23.198;2023-05-10T10:01:59;92217.91;;;10.81;100.00
34506;BME280;20748;42.632;23.198;2023-05-10T10:04:32;92219.91;;;10.84;100.00
34506;BME280;20748;42.632;23.198;2023-05-10T10:07:11;92221.16;;;10.86;100.00
34506;BME280;20748;42.632;23.198;2023-05-10T10:09:43;92220.88;;;10.88;100.00
34506;BME280;20748;42.632;23.198;2023-05-10T10:12:16;92213.31;;;10.86;100.00
34506;BME280;20748;42.632;23.198;2023-05-10T10:14:49;92222.38;;;11.03;100.00
34506;BME280;20748;42.632;23.198;2023-05-10T10:17:25;92224.47;;;11.15;100.00
34506;BME280;20748;42.632;23.198;2023-05-10T10:19:59;92221.88;;;11.15;100.00
34506;BME280;20748;42.632;23.198;2023-05-10T10:22:33;92220.84;;;11.02;100.00
34506;BME280;20748;42.632;23.198;2023-05-10T10:25:07;92221.09;;;11.14;100.00
34506;BME280;20748;42.632;23.198;2023-05-10T10:27:45;92233.31;;;11.28;100.00
34506;BME280;20748;42.632;23.198;2023-05-10T10:30:27;92225.72;;;11.18;100.00
34506;BME280;20748;42.632;23.198;2023-05-10T10:33:13;92231.25;;;11.16;100.00
34506;BME280;20748;42.632;23.198;2023-05-10T10:36:01;92221.31;;;11.04;100.00
34506;BME280;20748;42.632;23.198;2023-05-10T10:38:54;92226.16;;;10.97;100.00
34506;BME280;20748;42.632;23.198;2023-05-10T10:41:32;92217.09;;;10.80;100.00
34506;BME280;20748;42.632;23.198;2023-05-10T10:44:24;92227.25;;;10.82;100.00
34506;BME280;20748;42.632;23.198;2023-05-10T10:47:01;92216.72;;;10.87;100.00
34506;BME280;20748;42.632;23.198;2023-05-10T10:49:42;92228.72;;;10.74;100.00
34506;BME280;20748;42.632;23.198;2023-05-10T10:52:20;92228.97;;;10.86;100.00
34506;BME280;20748;42.632;23.198;2023-05-10T10:54:54;92230.63;;;10.96;100.00
34506;BME280;20748;42.632;23.198;2023-05-10T10:57:32;92225.34;;;10.87;100.00
34506;BME280;20748;42.632;23.198;2023-05-10T11:00:25;92228.78;;;10.97;100.00
34506;BME280;20748;42.632;23.198;2023-05-10T11:02:59;92222.22;;;10.85;100.00
34506;BME280;20748;42.632;23.198;2023-05-10T11:05:38;92227.66;;;10.75;100.00
34506;BME280;20748;42.632;23.198;2023-05-10T11:08:16;92230.16;;;10.80;100.00
34506;BME280;20748;42.632;23.198;2023-05-10T11:11:02;92229.31;;;10.85;100.00
34506;BME280;20748;42.632;23.198;2023-05-10T11:13:40;92227.53;;;10.94;100.00
34506;BME280;20748;42.632;23.198;2023-05-10T11:16:17;92224.09;;;11.08;100.00
34506;BME280;20748;42.632;23.198;2023-05-10T11:18:56;92223.38;;;10.93;100.00
34506;BME280;20748;42.632;23.198;2023-05-10T11:21:30;92226.97;;;10.83;100.00
34506;BME280;20748;42.632;23.198;2023-05-10T11:24:12;92228.34;;;10.81;100.00
34506;BME280;20748;42.632;23.198;2023-05-10T11:26:45;92229.13;;;10.67;100.00
34506;BME280;20748;42.632;23.198;2023-05-10T11:29:17;92231.66;;;10.44;100.00
34506;BME280;20748;42.632;23.198;2023-05-10T11:31:50;92229.88;;;10.40;100.00
34506;BME280;20748;42.632;23.198;2023-05-10T11:34:24;92239.66;;;10.34;100.00
34506;BME280;20748;42.632;23.198;2023-05-10T11:36:57;92234.25;;;10.30;100.00
34506;BME280;20748;42.632;23.198;2023-05-10T11:39:31;92234.06;;;10.27;100.00
34506;BME280;20748;42.632;23.198;2023-05-10T11:42:05;92239.28;;;10.27;100.00
34506;BME280;20748;42.632;23.198;2023-05-10T11:44:37;92228.25;;;10.16;100.00
34506;BME280;20748;42.632;23.198;2023-05-10T11:47:11;92231.34;;;10.18;100.00
34506;BME280;20748;42.632;23.198;2023-05-10T11:49:44;92227.19;;;10.17;100.00
34506;BME280;20748;42.632;23.198;2023-05-10T11:52:18;92222.75;;;10.17;100.00
34506;BME280;20748;42.632;23.198;2023-05-10T11:54:51;92228.34;;;10.25;100.00
34506;BME280;20748;42.632;23.198;2023-05-10T11:57:26;92232.31;;;10.36;100.00
34506;BME280;20748;42.632;23.198;2023-05-10T11:59:59;92227.69;;;10.33;100.00
34506;BME280;20748;42.632;23.198;2023-05-10T12:02:33;92226.41;;;10.30;100.00
34506;BME280;20748;42.632;23.198;2023-05-10T12:05:06;92218.97;;;10.38;100.00
34506;BME280;20748;42.632;23.198;2023-05-10T12:07:39;92225.91;;;10.42;100.00
34506;BME280;20748;42.632;23.198;2023-05-10T12:10:13;92217.28;;;10.47;100.00
34506;BME280;20748;42.632;23.198;2023-05-10T12:12:47;92216.00;;;10.58;100.00
34506;BME280;20748;42.632;23.198;2023-05-10T12:15:21;92213.69;;;10.57;100.00
34506;BME280;20748;42.632;23.198;2023-05-10T12:17:53;92219.75;;;10.66;100.00
34506;BME280;20748;42.632;23.198;2023-05-10T12:20:27;92211.06;;;10.57;100.00
34506;BME280;20748;42.632;23.198;2023-05-10T12:23:01;92216.66;;;10.64;100.00
34506;BME280;20748;42.632;23.198;2023-05-10T12:25:36;92213.75;;;10.66;100.00
34506;BME280;20748;42.632;23.198;2023-05-10T12:28:10;92209.59;;;10.79;100.00
34506;BME280;20748;42.632;23.198;2023-05-10T12:30:42;92210.13;;;10.90;100.00
34506;BME280;20748;42.632;23.198;2023-05-10T12:33:17;92219.63;;;10.71;100.00
34506;BME280;20748;42.632;23.198;2023-05-10T12:35:50;92213.44;;;10.81;100.00
34506;BME280;20748;42.632;23.198;2023-05-10T12:38:28;92208.03;;;10.78;100.00
34506;BME280;20748;42.632;23.198;2023-05-10T12:41:02;92207.09;;;10.59;100.00
34506;BME280;20748;42.632;23.198;2023-05-10T12:43:36;92190.31;;;10.52;100.00
34506;BME280;20748;42.632;23.198;2023-05-10T12:46:09;92201.53;;;10.52;100.00
34506;BME280;20748;42.632;23.198;2023-05-10T12:48:43;92207.66;;;10.42;100.00
34506;BME280;20748;42.632;23.198;2023-05-10T12:51:15;92208.53;;;10.38;100.00
34506;BME280;20748;42.632;23.198;2023-05-10T12:53:51;92206.91;;;10.28;100.00
34506;BME280;20748;42.632;23.198;2023-05-10T12:56:24;92195.41;;;10.15;100.00
34506;BME280;20748;42.632;23.198;2023-05-10T12:58:56;92192.81;;;10.15;100.00
34506;BME280;20748;42.632;23.198;2023-05-10T13:01:28;92188.56;;;10.19;100.00
34506;BME280;20748;42.632;23.198;2023-05-10T13:04:01;92187.41;;;10.25;100.00
34506;BME280;20748;42.632;23.198;2023-05-10T13:06:33;92187.78;;;10.18;100.00
34506;BME280;20748;42.632;23.198;2023-05-10T13:09:07;92187.69;;;10.24;100.00
34506;BME280;20748;42.632;23.198;2023-05-10T13:11:39;92174.56;;;10.15;100.00
34506;BME280;20748;42.632;23.198;2023-05-10T13:14:11;92172.22;;;10.27;100.00
34506;BME280;20748;42.632;23.198;2023-05-10T13:16:44;92174.09;;;10.13;100.00
34506;BME280;20748;42.632;23.198;2023-05-10T13:19:17;92170.41;;;10.14;100.00
34506;BME280;20748;42.632;23.198;2023-05-10T13:21:49;92167.22;;;10.03;100.00
34506;BME280;20748;42.632;23.198;2023-05-10T13:24:22;92168.78;;;10.04;100.00
34506;BME280;20748;42.632;23.198;2023-05-10T13:26:55;92159.00;;;9.96;100.00
34506;BME280;20748;42.632;23.198;2023-05-10T13:29:27;92155.16;;;9.93;100.00
34506;BME280;20748;42.632;23.198;2023-05-10T13:31:59;92149.38;;;9.96;100.00
34506;BME280;20748;42.632;23.198;2023-05-10T13:34:32;92154.00;;;9.99;100.00
34506;BME280;20748;42.632;23.198;2023-05-10T13:37:04;92148.00;;;9.99;100.00